createdAt,value
2023-03-26T00:00:07.045Z,1008.60
2023-03-26T00:00:38.440Z,1008.60
2023-03-26T00:01:09.623Z,1008.70
2023-03-26T00:01:40.038Z,1008.70
2023-03-26T00:02:11.369Z,1008.50
2023-03-26T00:02:41.563Z,1008.50
2023-03-26T00:03:12.797Z,1008.70
2023-03-26T00:03:43.651Z,1008.70
2023-03-26T00:04:45.814Z,1008.91
2023-03-26T00:05:16.908Z,1008.70
2023-03-26T00:05:47.798Z,1008.70
2023-03-26T00:06:19.929Z,1008.60
2023-03-26T00:06:50.277Z,1008.60
2023-03-26T00:07:21.121Z,1008.70
2023-03-26T00:07:52.231Z,1008.70
2023-03-26T00:08:22.734Z,1008.80
2023-03-26T00:08:53.537Z,1008.80
2023-03-26T00:09:25.209Z,1008.50
2023-03-26T00:09:55.829Z,1008.50
2023-03-26T00:10:26.873Z,1008.60
2023-03-26T00:10:59.522Z,1008.60
2023-03-26T00:11:29.431Z,1008.40
2023-03-26T00:12:00.386Z,1008.40
2023-03-26T00:12:30.785Z,1008.40
2023-03-26T00:13:01.842Z,1008.70
2023-03-26T00:13:32.721Z,1008.70
2023-03-26T00:14:03.877Z,1008.70
2023-03-26T00:14:34.866Z,1008.70
2023-03-26T00:15:06.230Z,1008.80
2023-03-26T00:15:36.991Z,1008.80
2023-03-26T00:16:08.264Z,1008.70
2023-03-26T00:16:39.898Z,1008.70
2023-03-26T00:17:10.600Z,1008.60
2023-03-26T00:17:41.229Z,1008.60
2023-03-26T00:18:11.903Z,1008.50
2023-03-26T00:19:00.522Z,1008.50
2023-03-26T00:19:14.205Z,1008.50
2023-03-26T00:19:45.165Z,1008.50
2023-03-26T00:20:15.984Z,1008.60
2023-03-26T00:20:46.692Z,1008.60
2023-03-26T00:21:18.096Z,1008.70
2023-03-26T00:21:49.678Z,1008.70
2023-03-26T00:22:20.160Z,1008.80
2023-03-26T00:22:51.385Z,1008.80
2023-03-26T00:23:21.720Z,1008.60
2023-03-26T00:23:52.929Z,1008.60
2023-03-26T00:24:23.761Z,1008.60
2023-03-26T00:24:55.120Z,1008.60
2023-03-26T00:25:26.172Z,1008.70
2023-03-26T00:25:56.961Z,1008.70
2023-03-26T00:26:29.013Z,1008.50
2023-03-26T00:27:00.173Z,1008.50
2023-03-26T00:28:01.429Z,1008.60
2023-03-26T00:28:31.951Z,1008.60
2023-03-26T00:29:20.357Z,1008.50
2023-03-26T00:30:05.423Z,1008.40
2023-03-26T00:30:35.734Z,1008.40
2023-03-26T00:31:06.747Z,1008.50
2023-03-26T00:31:38.335Z,1008.50
2023-03-26T00:32:09.769Z,1008.40
2023-03-26T00:32:40.736Z,1008.40
2023-03-26T00:33:11.723Z,1008.40
2023-03-26T00:33:41.866Z,1008.40
2023-03-26T00:34:13.125Z,1008.50
2023-03-26T00:34:43.610Z,1008.50
2023-03-26T00:35:15.301Z,1008.50
2023-03-26T00:35:45.848Z,1008.50
2023-03-26T00:36:16.818Z,1008.60
2023-03-26T00:36:47.778Z,1008.60
2023-03-26T00:37:20.042Z,1008.50
2023-03-26T00:37:51.096Z,1008.50
2023-03-26T00:38:22.163Z,1008.40
2023-03-26T00:38:52.142Z,1008.40
2023-03-26T00:39:22.857Z,1008.50
2023-03-26T00:39:53.721Z,1008.50
2023-03-26T00:40:25.357Z,1008.70
2023-03-26T00:40:55.802Z,1008.70
2023-03-26T00:41:27.188Z,1008.40
2023-03-26T00:41:57.847Z,1008.40
2023-03-26T00:42:29.278Z,1008.30
2023-03-26T00:43:00.504Z,1008.30
2023-03-26T00:43:30.967Z,1008.40
2023-03-26T00:44:02.162Z,1008.30
2023-03-26T00:44:32.599Z,1008.30
2023-03-26T00:45:04.091Z,1008.60
2023-03-26T00:45:34.951Z,1008.60
2023-03-26T00:46:05.888Z,1008.40
2023-03-26T00:47:08.064Z,1008.40
2023-03-26T00:47:39.727Z,1008.40
2023-03-26T00:48:10.432Z,1008.50
2023-03-26T00:48:45.536Z,1008.50
2023-03-26T00:49:12.125Z,1008.40
2023-03-26T00:49:43.373Z,1008.40
2023-03-26T00:50:14.437Z,1008.19
2023-03-26T00:51:15.963Z,1008.40
2023-03-26T00:51:46.677Z,1008.40
2023-03-26T00:52:17.769Z,1008.40
2023-03-26T00:52:49.706Z,1008.40
2023-03-26T00:53:20.391Z,1008.50
2023-03-26T00:53:51.831Z,1008.50
2023-03-26T00:54:21.992Z,1008.40
2023-03-26T00:54:52.627Z,1008.40
2023-03-26T00:55:24.980Z,1008.50
2023-03-26T00:55:55.645Z,1008.50
2023-03-26T00:56:25.876Z,1008.19
2023-03-26T00:56:57.146Z,1008.19
2023-03-26T00:57:35.576Z,1008.40
2023-03-26T00:58:00.452Z,1008.40
2023-03-26T00:58:31.730Z,1008.30
2023-03-26T00:59:32.147Z,1008.50
2023-03-26T01:00:03.482Z,1008.40
2023-03-26T01:00:34.063Z,1008.40
2023-03-26T01:01:05.180Z,1008.30
2023-03-26T01:01:36.221Z,1008.30
2023-03-26T01:02:06.830Z,1008.40
2023-03-26T01:02:38.241Z,1008.40
2023-03-26T01:03:09.746Z,1008.19
2023-03-26T01:03:44.253Z,1008.19
2023-03-26T01:04:12.017Z,1008.19
2023-03-26T01:04:42.958Z,1008.19
2023-03-26T01:05:13.063Z,1008.30
2023-03-26T01:05:43.722Z,1008.30
2023-03-26T01:06:15.310Z,1008.50
2023-03-26T01:06:46.070Z,1008.50
2023-03-26T01:07:17.034Z,1008.50
2023-03-26T01:07:48.032Z,1008.50
2023-03-26T01:09:12.017Z,1008.40
2023-03-26T01:09:24.392Z,1008.30
2023-03-26T01:10:02.789Z,1008.30
2023-03-26T01:10:22.948Z,1008.30
2023-03-26T01:10:54.543Z,1008.30
2023-03-26T01:11:25.305Z,1008.40
2023-03-26T01:11:56.652Z,1008.40
2023-03-26T01:12:27.794Z,1008.40
2023-03-26T01:13:02.486Z,1008.40
2023-03-26T01:13:30.317Z,1008.50
2023-03-26T01:14:01.022Z,1008.50
2023-03-26T01:14:32.696Z,1008.50
2023-03-26T01:15:07.584Z,1008.40
2023-03-26T01:15:34.077Z,1008.40
2023-03-26T01:16:04.313Z,1008.50
2023-03-26T01:16:53.414Z,1008.50
2023-03-26T01:17:06.239Z,1008.50
2023-03-26T01:17:37.449Z,1008.50
2023-03-26T01:18:10.085Z,1008.50
2023-03-26T01:18:40.141Z,1008.50
2023-03-26T01:19:15.150Z,1008.60
2023-03-26T01:19:42.946Z,1008.60
2023-03-26T01:20:14.531Z,1008.50
2023-03-26T01:20:45.386Z,1008.50
2023-03-26T01:21:24.061Z,1008.60
2023-03-26T01:21:45.409Z,1008.60
2023-03-26T01:22:17.024Z,1008.50
2023-03-26T01:22:47.812Z,1008.50
2023-03-26T01:23:18.065Z,1008.70
2023-03-26T01:23:50.947Z,1008.70
2023-03-26T01:24:22.681Z,1008.60
2023-03-26T01:24:52.988Z,1008.60
2023-03-26T01:25:23.561Z,1008.70
2023-03-26T01:25:53.724Z,1008.70
2023-03-26T01:26:27.118Z,1008.60
2023-03-26T01:26:55.772Z,1008.60
2023-03-26T01:27:29.918Z,1008.40
2023-03-26T01:27:58.313Z,1008.40
2023-03-26T01:28:34.520Z,1008.50
2023-03-26T01:29:01.955Z,1008.50
2023-03-26T01:29:32.387Z,1008.80
2023-03-26T01:30:11.866Z,1008.80
2023-03-26T01:30:33.691Z,1008.80
2023-03-26T01:31:13.712Z,1008.60
2023-03-26T01:31:34.818Z,1008.60
2023-03-26T01:32:05.389Z,1008.60
2023-03-26T01:32:37.142Z,1008.60
2023-03-26T01:33:07.631Z,1008.60
2023-03-26T01:33:40.081Z,1008.60
2023-03-26T01:34:09.668Z,1008.70
2023-03-26T01:34:42.107Z,1008.70
2023-03-26T01:35:12.926Z,1008.50
2023-03-26T01:35:42.846Z,1008.50
2023-03-26T01:37:44.171Z,1008.50
2023-03-26T01:38:22.669Z,1008.50
2023-03-26T01:38:48.288Z,1008.50
2023-03-26T01:39:19.585Z,1008.30
2023-03-26T01:39:50.690Z,1008.30
2023-03-26T01:40:21.787Z,1008.60
2023-03-26T01:40:52.460Z,1008.60
2023-03-26T01:41:24.915Z,1008.19
2023-03-26T01:42:31.272Z,1008.19
2023-03-26T01:42:57.618Z,1008.30
2023-03-26T01:43:27.529Z,1008.40
2023-03-26T01:43:59.064Z,1008.40
2023-03-26T01:44:29.509Z,1008.30
2023-03-26T01:45:00.774Z,1008.30
2023-03-26T01:45:31.666Z,1008.50
2023-03-26T01:46:02.123Z,1008.50
2023-03-26T01:46:34.423Z,1008.50
2023-03-26T01:47:05.435Z,1008.40
2023-03-26T01:47:36.193Z,1008.40
2023-03-26T01:48:06.684Z,1008.70
2023-03-26T01:48:37.229Z,1008.70
2023-03-26T01:49:08.176Z,1008.60
2023-03-26T01:50:11.258Z,1008.40
2023-03-26T01:50:41.126Z,1008.40
2023-03-26T01:51:12.964Z,1008.40
2023-03-26T01:51:45.412Z,1008.40
2023-03-26T01:52:14.665Z,1008.60
2023-03-26T01:52:46.844Z,1008.60
2023-03-26T01:53:16.727Z,1008.40
2023-03-26T01:53:47.780Z,1008.40
2023-03-26T01:54:18.167Z,1008.50
2023-03-26T01:54:49.170Z,1008.50
2023-03-26T01:55:20.406Z,1008.30
2023-03-26T01:55:51.628Z,1008.30
2023-03-26T01:56:22.124Z,1008.30
2023-03-26T01:56:53.750Z,1008.30
2023-03-26T01:57:25.357Z,1008.30
2023-03-26T01:57:56.473Z,1008.30
2023-03-26T01:58:27.080Z,1008.40
2023-03-26T01:58:57.592Z,1008.40
2023-03-26T01:59:29.307Z,1008.30
2023-03-26T01:59:59.532Z,1008.30
2023-03-26T02:00:53.901Z,1008.30
2023-03-26T02:01:01.193Z,1008.40
2023-03-26T02:01:32.653Z,1008.40
2023-03-26T02:02:05.671Z,1008.60
2023-03-26T02:02:34.405Z,1008.60
2023-03-26T02:03:44.441Z,1008.50
2023-03-26T02:04:07.871Z,1008.40
2023-03-26T02:04:41.615Z,1008.40
2023-03-26T02:05:47.336Z,1008.40
2023-03-26T02:06:13.866Z,1008.50
2023-03-26T02:06:46.564Z,1008.50
2023-03-26T02:07:20.828Z,1008.50
2023-03-26T02:07:45.849Z,1008.50
2023-03-26T02:08:27.618Z,1008.19
2023-03-26T02:08:46.241Z,1008.19
2023-03-26T02:09:22.499Z,1008.50
2023-03-26T02:09:57.027Z,1008.50
2023-03-26T02:10:21.097Z,1008.30
2023-03-26T02:11:03.434Z,1008.30
2023-03-26T02:11:23.245Z,1008.30
2023-03-26T02:11:53.030Z,1008.30
2023-03-26T02:12:23.544Z,1008.30
2023-03-26T02:12:54.206Z,1008.30
2023-03-26T02:13:25.973Z,1008.30
2023-03-26T02:13:56.915Z,1008.30
2023-03-26T02:14:27.100Z,1008.30
2023-03-26T02:14:59.260Z,1008.30
2023-03-26T02:15:31.616Z,1008.50
2023-03-26T02:16:02.128Z,1008.50
2023-03-26T02:16:50.019Z,1008.40
2023-03-26T02:17:02.726Z,1008.50
2023-03-26T02:17:33.296Z,1008.50
2023-03-26T02:18:04.708Z,1008.40
2023-03-26T02:18:36.075Z,1008.40
2023-03-26T02:19:06.366Z,1008.19
2023-03-26T02:19:38.744Z,1008.19
2023-03-26T02:20:09.878Z,1008.09
2023-03-26T02:20:40.438Z,1008.09
2023-03-26T02:21:11.892Z,1008.09
2023-03-26T02:21:41.796Z,1008.09
2023-03-26T02:22:13.439Z,1008.30
2023-03-26T02:22:44.000Z,1008.30
2023-03-26T02:23:16.298Z,1008.40
2023-03-26T02:23:45.074Z,1008.40
2023-03-26T02:24:17.958Z,1008.19
2023-03-26T02:25:19.398Z,1008.09
2023-03-26T02:25:51.101Z,1008.09
2023-03-26T02:26:21.014Z,1008.19
2023-03-26T02:26:53.882Z,1008.19
2023-03-26T02:27:22.702Z,1008.30
2023-03-26T02:27:53.583Z,1008.30
2023-03-26T02:28:24.668Z,1008.30
2023-03-26T02:28:55.509Z,1008.30
2023-03-26T02:29:26.596Z,1008.19
2023-03-26T02:29:58.596Z,1008.19
2023-03-26T02:30:30.098Z,1008.60
2023-03-26T02:30:59.888Z,1008.60
2023-03-26T02:31:31.306Z,1008.30
2023-03-26T02:32:02.574Z,1008.19
2023-03-26T02:32:32.264Z,1008.19
2023-03-26T02:33:03.644Z,1008.40
2023-03-26T02:33:34.330Z,1008.40
2023-03-26T02:34:05.663Z,1008.40
2023-03-26T02:34:36.045Z,1008.40
2023-03-26T02:35:08.282Z,1008.40
2023-03-26T02:35:38.918Z,1008.40
2023-03-26T02:36:10.796Z,1008.19
2023-03-26T02:36:40.834Z,1008.19
2023-03-26T02:37:11.748Z,1008.30
2023-03-26T02:37:42.426Z,1008.30
2023-03-26T02:38:13.644Z,1008.09
2023-03-26T02:38:44.152Z,1008.09
2023-03-26T02:39:15.442Z,1008.30
2023-03-26T02:39:46.408Z,1008.30
2023-03-26T02:40:26.255Z,1008.30
2023-03-26T02:40:48.712Z,1008.30
2023-03-26T02:41:19.859Z,1007.99
2023-03-26T02:41:50.793Z,1007.99
2023-03-26T02:42:21.631Z,1008.09
2023-03-26T02:42:52.130Z,1008.09
2023-03-26T02:43:23.283Z,1008.30
2023-03-26T02:43:54.152Z,1008.30
2023-03-26T02:44:25.288Z,1007.99
2023-03-26T02:44:56.918Z,1007.99
2023-03-26T02:45:27.764Z,1008.19
2023-03-26T02:45:59.322Z,1008.19
2023-03-26T02:46:30.036Z,1008.19
2023-03-26T02:47:00.593Z,1008.19
2023-03-26T02:47:31.355Z,1008.19
2023-03-26T02:48:02.993Z,1007.89
2023-03-26T02:48:33.161Z,1007.89
2023-03-26T02:49:04.261Z,1008.30
2023-03-26T02:49:35.229Z,1008.30
2023-03-26T02:50:07.106Z,1008.19
2023-03-26T02:50:37.628Z,1008.19
2023-03-26T02:51:09.011Z,1008.19
2023-03-26T02:51:40.059Z,1008.19
2023-03-26T02:52:11.655Z,1008.30
2023-03-26T02:52:41.914Z,1008.30
2023-03-26T02:53:12.825Z,1008.30
2023-03-26T02:53:43.213Z,1008.30
2023-03-26T02:54:14.340Z,1008.19
2023-03-26T02:54:45.840Z,1008.19
2023-03-26T02:55:16.388Z,1008.30
2023-03-26T02:56:05.148Z,1008.19
2023-03-26T02:56:18.793Z,1008.19
2023-03-26T02:56:50.360Z,1008.19
2023-03-26T02:57:21.740Z,1007.99
2023-03-26T02:57:51.585Z,1007.99
2023-03-26T02:58:22.790Z,1008.09
2023-03-26T02:58:52.992Z,1008.09
2023-03-26T02:59:24.380Z,1008.19
2023-03-26T02:59:55.339Z,1008.19
2023-03-26T03:00:26.495Z,1007.89
2023-03-26T03:00:57.412Z,1007.89
2023-03-26T03:01:28.477Z,1008.40
2023-03-26T03:02:12.177Z,1007.79
2023-03-26T03:03:03.149Z,1008.09
2023-03-26T03:03:32.335Z,1008.09
2023-03-26T03:04:03.758Z,1008.09
2023-03-26T03:04:34.846Z,1008.09
2023-03-26T03:05:05.527Z,1008.09
2023-03-26T03:05:36.299Z,1008.09
2023-03-26T03:06:07.398Z,1007.99
2023-03-26T03:06:38.810Z,1007.99
2023-03-26T03:07:10.748Z,1008.09
2023-03-26T03:07:41.602Z,1008.09
2023-03-26T03:08:11.714Z,1007.89
2023-03-26T03:08:42.387Z,1007.89
2023-03-26T03:09:13.186Z,1008.09
2023-03-26T03:09:44.508Z,1008.09
2023-03-26T03:10:15.624Z,1008.09
2023-03-26T03:10:46.163Z,1008.09
2023-03-26T03:11:17.730Z,1007.89
2023-03-26T03:11:48.420Z,1007.89
2023-03-26T03:12:20.608Z,1008.09
2023-03-26T03:12:51.367Z,1008.09
2023-03-26T03:13:22.049Z,1008.09
2023-03-26T03:13:52.700Z,1008.09
2023-03-26T03:14:23.332Z,1008.09
2023-03-26T03:14:54.335Z,1008.09
2023-03-26T03:15:25.356Z,1008.30
2023-03-26T03:15:57.240Z,1008.30
2023-03-26T03:16:27.781Z,1007.99
2023-03-26T03:16:58.463Z,1007.99
2023-03-26T03:17:30.700Z,1007.99
2023-03-26T03:18:01.045Z,1007.99
2023-03-26T03:18:32.460Z,1008.19
2023-03-26T03:19:33.409Z,1008.30
2023-03-26T03:20:04.524Z,1008.19
2023-03-26T03:20:35.307Z,1008.19
2023-03-26T03:21:06.399Z,1008.09
2023-03-26T03:21:37.241Z,1008.09
2023-03-26T03:22:08.499Z,1008.09
2023-03-26T03:22:39.594Z,1008.09
2023-03-26T03:23:11.404Z,1008.09
2023-03-26T03:23:41.824Z,1008.09
2023-03-26T03:24:12.310Z,1008.19
2023-03-26T03:24:43.569Z,1008.19
2023-03-26T03:25:14.288Z,1008.19
2023-03-26T03:25:45.505Z,1008.19
2023-03-26T03:26:17.565Z,1008.19
2023-03-26T03:26:47.392Z,1008.19
2023-03-26T03:27:51.341Z,1008.50
2023-03-26T03:28:35.382Z,1008.30
2023-03-26T03:29:06.213Z,1008.40
2023-03-26T03:29:37.257Z,1008.40
2023-03-26T03:30:09.213Z,1008.19
2023-03-26T03:30:40.564Z,1008.19
2023-03-26T03:31:12.296Z,1008.30
2023-03-26T03:31:41.928Z,1008.30
2023-03-26T03:32:12.846Z,1008.30
2023-03-26T03:33:14.560Z,1008.30
2023-03-26T03:33:45.244Z,1008.30
2023-03-26T03:34:16.240Z,1008.19
2023-03-26T03:34:47.946Z,1008.19
2023-03-26T03:35:18.532Z,1008.19
2023-03-26T03:35:50.812Z,1008.19
2023-03-26T03:36:21.923Z,1008.19
2023-03-26T03:36:52.506Z,1008.19
2023-03-26T03:37:22.608Z,1008.30
2023-03-26T03:37:53.531Z,1008.30
2023-03-26T03:38:24.429Z,1008.09
2023-03-26T03:38:55.365Z,1008.09
2023-03-26T03:39:26.384Z,1008.40
2023-03-26T03:39:57.624Z,1008.40
2023-03-26T03:40:28.289Z,1008.19
2023-03-26T03:41:00.120Z,1008.19
2023-03-26T03:41:31.433Z,1008.30
2023-03-26T03:42:03.038Z,1008.30
2023-03-26T03:42:32.626Z,1008.30
2023-03-26T03:43:03.584Z,1008.30
2023-03-26T03:43:34.605Z,1008.30
2023-03-26T03:44:05.204Z,1008.30
2023-03-26T03:44:36.503Z,1008.30
2023-03-26T03:45:07.794Z,1008.19
2023-03-26T03:45:38.267Z,1008.19
2023-03-26T03:46:10.100Z,1008.40
2023-03-26T03:46:41.396Z,1008.40
2023-03-26T03:47:13.090Z,1008.50
2023-03-26T03:47:43.004Z,1008.50
2023-03-26T03:48:13.592Z,1008.30
2023-03-26T03:48:44.392Z,1008.30
2023-03-26T03:49:15.525Z,1008.19
2023-03-26T03:49:46.506Z,1008.19
2023-03-26T03:50:17.414Z,1008.50
2023-03-26T03:50:48.398Z,1008.50
2023-03-26T03:51:20.081Z,1008.50
2023-03-26T03:51:51.581Z,1008.50
2023-03-26T03:52:22.503Z,1008.30
2023-03-26T03:52:52.809Z,1008.30
2023-03-26T03:53:23.637Z,1008.50
2023-03-26T03:53:54.422Z,1008.50
2023-03-26T03:54:25.549Z,1008.30
2023-03-26T03:54:56.414Z,1008.30
2023-03-26T03:55:27.390Z,1008.19
2023-03-26T03:55:58.621Z,1008.19
2023-03-26T03:56:29.739Z,1008.19
2023-03-26T03:57:01.762Z,1008.19
2023-03-26T03:57:32.075Z,1008.19
2023-03-26T03:58:04.020Z,1008.40
2023-03-26T03:58:33.707Z,1008.40
2023-03-26T03:59:05.539Z,1008.30
2023-03-26T03:59:35.286Z,1008.30
2023-03-26T04:00:07.215Z,1008.40
2023-03-26T04:00:38.284Z,1008.40
2023-03-26T04:01:08.444Z,1008.30
2023-03-26T04:01:39.559Z,1008.30
2023-03-26T04:02:10.586Z,1008.40
2023-03-26T04:02:41.962Z,1008.40
2023-03-26T04:03:12.713Z,1008.30
2023-03-26T04:03:43.447Z,1008.30
2023-03-26T04:04:14.238Z,1008.09
2023-03-26T04:04:45.500Z,1008.09
2023-03-26T04:05:16.569Z,1008.30
2023-03-26T04:05:47.335Z,1008.30
2023-03-26T04:06:19.106Z,1008.40
2023-03-26T04:06:50.050Z,1008.40
2023-03-26T04:07:20.792Z,1008.19
2023-03-26T04:07:51.980Z,1008.19
2023-03-26T04:08:22.789Z,1008.60
2023-03-26T04:09:24.861Z,1008.50
2023-03-26T04:09:55.957Z,1008.50
2023-03-26T04:10:26.871Z,1008.30
2023-03-26T04:11:14.835Z,1008.40
2023-03-26T04:11:28.522Z,1008.40
2023-03-26T04:11:59.641Z,1008.40
2023-03-26T04:12:30.554Z,1008.30
2023-03-26T04:13:01.723Z,1008.40
2023-03-26T04:13:32.791Z,1008.40
2023-03-26T04:14:21.517Z,1008.40
2023-03-26T04:14:34.664Z,1008.40
2023-03-26T04:15:06.428Z,1008.30
2023-03-26T04:15:36.609Z,1008.30
2023-03-26T04:16:08.352Z,1008.19
2023-03-26T04:16:38.605Z,1008.19
2023-03-26T04:17:09.561Z,1008.40
2023-03-26T04:17:41.138Z,1008.40
2023-03-26T04:18:11.990Z,1008.30
2023-03-26T04:18:42.697Z,1008.30
2023-03-26T04:19:13.655Z,1008.40
2023-03-26T04:19:44.582Z,1008.40
2023-03-26T04:20:16.276Z,1008.09
2023-03-26T04:20:47.091Z,1008.09
2023-03-26T04:21:17.990Z,1008.19
2023-03-26T04:21:48.693Z,1008.19
2023-03-26T04:22:19.990Z,1008.19
2023-03-26T04:23:08.546Z,1008.19
2023-03-26T04:23:22.081Z,1008.19
2023-03-26T04:23:52.783Z,1008.19
2023-03-26T04:24:23.531Z,1008.40
2023-03-26T04:24:54.691Z,1008.40
2023-03-26T04:25:26.012Z,1008.09
2023-03-26T04:25:57.244Z,1008.09
2023-03-26T04:26:28.528Z,1008.09
2023-03-26T04:26:59.486Z,1008.09
2023-03-26T04:27:29.425Z,1008.19
2023-03-26T04:28:00.794Z,1008.19
2023-03-26T04:28:31.858Z,1008.19
2023-03-26T04:29:02.725Z,1008.19
2023-03-26T04:29:51.926Z,1008.19
2023-03-26T04:30:05.108Z,1008.19
2023-03-26T04:30:37.258Z,1008.19
2023-03-26T04:31:07.272Z,1008.30
2023-03-26T04:31:38.367Z,1008.30
2023-03-26T04:32:09.922Z,1008.19
2023-03-26T04:32:39.858Z,1008.19
2023-03-26T04:33:11.444Z,1008.09
2023-03-26T04:33:41.991Z,1008.09
2023-03-26T04:34:12.676Z,1008.09
2023-03-26T04:34:43.717Z,1008.09
2023-03-26T04:35:14.724Z,1008.19
2023-03-26T04:35:46.112Z,1008.19
2023-03-26T04:36:16.771Z,1007.99
2023-03-26T04:36:48.367Z,1007.99
2023-03-26T04:37:18.765Z,1008.09
2023-03-26T04:37:49.678Z,1008.09
2023-03-26T04:38:20.922Z,1007.89
2023-03-26T04:38:52.037Z,1007.89
2023-03-26T04:39:22.487Z,1008.19
2023-03-26T04:39:53.588Z,1008.19
2023-03-26T04:40:24.564Z,1007.99
2023-03-26T04:40:56.385Z,1007.99
2023-03-26T04:41:27.538Z,1008.09
2023-03-26T04:41:58.977Z,1008.09
2023-03-26T04:42:29.174Z,1007.99
2023-03-26T04:42:59.781Z,1007.99
2023-03-26T04:43:30.828Z,1007.99
2023-03-26T04:44:02.309Z,1008.09
2023-03-26T04:45:04.584Z,1008.19
2023-03-26T04:45:34.782Z,1008.19
2023-03-26T04:46:05.965Z,1008.19
2023-03-26T04:46:36.751Z,1008.19
2023-03-26T04:47:08.382Z,1008.09
2023-03-26T04:47:39.018Z,1008.09
2023-03-26T04:48:09.854Z,1007.99
2023-03-26T04:48:41.818Z,1007.99
2023-03-26T04:49:11.911Z,1007.99
2023-03-26T04:49:42.779Z,1007.99
2023-03-26T04:50:13.967Z,1007.89
2023-03-26T04:50:44.648Z,1007.89
2023-03-26T04:51:15.476Z,1007.79
2023-03-26T04:51:46.449Z,1007.79
2023-03-26T04:52:18.132Z,1007.69
2023-03-26T04:52:49.750Z,1007.69
2023-03-26T04:53:19.793Z,1007.99
2023-03-26T04:53:50.894Z,1007.99
2023-03-26T04:54:21.768Z,1007.89
2023-03-26T04:54:52.742Z,1007.89
2023-03-26T04:55:23.840Z,1007.89
2023-03-26T04:55:54.633Z,1007.89
2023-03-26T04:56:25.787Z,1007.99
2023-03-26T04:56:58.550Z,1007.99
2023-03-26T04:57:29.003Z,1007.89
2023-03-26T04:57:59.978Z,1007.89
2023-03-26T04:58:29.690Z,1007.89
2023-03-26T04:59:31.911Z,1007.89
2023-03-26T05:00:03.768Z,1008.09
2023-03-26T05:00:33.512Z,1008.09
2023-03-26T05:01:10.183Z,1007.99
2023-03-26T05:01:37.541Z,1007.99
2023-03-26T05:02:08.038Z,1007.89
2023-03-26T05:02:37.993Z,1007.89
2023-03-26T05:03:09.092Z,1007.69
2023-03-26T05:03:39.920Z,1007.69
2023-03-26T05:04:10.636Z,1007.79
2023-03-26T05:04:42.991Z,1007.79
2023-03-26T05:05:13.086Z,1007.79
2023-03-26T05:05:43.593Z,1007.79
2023-03-26T05:06:14.517Z,1007.89
2023-03-26T05:06:45.868Z,1007.89
2023-03-26T05:07:17.570Z,1007.99
2023-03-26T05:07:48.241Z,1007.99
2023-03-26T05:08:19.356Z,1007.89
2023-03-26T05:08:49.721Z,1007.89
2023-03-26T05:09:33.124Z,1007.79
2023-03-26T05:09:51.957Z,1007.79
2023-03-26T05:10:29.052Z,1007.79
2023-03-26T05:10:53.797Z,1007.79
2023-03-26T05:11:56.445Z,1007.79
2023-03-26T05:12:27.857Z,1007.69
2023-03-26T05:12:59.197Z,1007.69
2023-03-26T05:13:29.179Z,1007.69
2023-03-26T05:13:59.964Z,1007.69
2023-03-26T05:14:31.320Z,1007.89
2023-03-26T05:15:03.063Z,1007.79
2023-03-26T05:15:34.360Z,1007.79
2023-03-26T05:16:04.172Z,1007.58
2023-03-26T05:16:35.350Z,1007.58
2023-03-26T05:17:06.301Z,1007.69
2023-03-26T05:17:41.017Z,1007.69
2023-03-26T05:18:14.370Z,1007.69
2023-03-26T05:18:49.158Z,1007.69
2023-03-26T05:19:09.710Z,1007.69
2023-03-26T05:19:41.022Z,1007.69
2023-03-26T05:20:13.120Z,1007.48
2023-03-26T05:20:42.934Z,1007.48
2023-03-26T05:21:37.993Z,1007.79
2023-03-26T05:21:45.004Z,1007.79
2023-03-26T05:22:16.189Z,1007.69
2023-03-26T05:22:48.569Z,1007.69
2023-03-26T05:23:18.570Z,1007.58
2023-03-26T05:24:31.001Z,1007.58
2023-03-26T05:24:50.992Z,1007.48
2023-03-26T05:25:21.916Z,1007.69
2023-03-26T05:25:52.954Z,1007.69
2023-03-26T05:26:23.825Z,1007.79
2023-03-26T05:26:54.879Z,1007.79
2023-03-26T05:27:25.834Z,1007.58
2023-03-26T05:27:57.507Z,1007.58
2023-03-26T05:28:28.383Z,1007.48
2023-03-26T05:29:48.544Z,1007.48
2023-03-26T05:30:01.833Z,1007.48
2023-03-26T05:30:35.000Z,1007.48
2023-03-26T05:31:03.642Z,1007.48
2023-03-26T05:31:33.683Z,1007.48
2023-03-26T05:32:05.019Z,1007.48
2023-03-26T05:32:39.241Z,1007.48
2023-03-26T05:33:08.047Z,1007.42
2023-03-26T05:33:38.900Z,1007.42
2023-03-26T05:34:09.836Z,1007.42
2023-03-26T05:34:40.705Z,1007.42
2023-03-26T05:35:13.828Z,1007.48
2023-03-26T05:35:59.233Z,1007.48
2023-03-26T05:36:13.448Z,1007.58
2023-03-26T05:36:44.464Z,1007.58
2023-03-26T05:37:19.870Z,1007.48
2023-03-26T05:37:46.861Z,1007.48
2023-03-26T05:38:18.235Z,1007.58
2023-03-26T05:38:48.648Z,1007.58
2023-03-26T05:39:19.045Z,1007.58
2023-03-26T05:39:50.723Z,1007.58
2023-03-26T05:40:21.497Z,1007.42
2023-03-26T05:40:52.597Z,1007.42
2023-03-26T05:41:23.988Z,1007.42
2023-03-26T05:41:54.024Z,1007.42
2023-03-26T05:42:24.944Z,1007.42
2023-03-26T05:42:55.751Z,1007.42
2023-03-26T05:43:58.592Z,1007.31
2023-03-26T05:44:29.627Z,1007.42
2023-03-26T05:45:00.109Z,1007.42
2023-03-26T05:45:32.657Z,1007.48
2023-03-26T05:46:02.108Z,1007.58
2023-03-26T05:47:07.564Z,1007.48
2023-03-26T05:47:35.358Z,1007.48
2023-03-26T05:48:05.802Z,1007.48
2023-03-26T05:48:37.270Z,1007.48
2023-03-26T05:49:08.709Z,1007.42
2023-03-26T05:49:39.603Z,1007.42
2023-03-26T05:50:14.059Z,1007.48
2023-03-26T05:50:41.448Z,1007.48
2023-03-26T05:51:12.270Z,1007.58
2023-03-26T05:51:43.014Z,1007.58
2023-03-26T05:52:13.974Z,1007.48
2023-03-26T05:52:44.762Z,1007.48
2023-03-26T05:53:15.858Z,1007.48
2023-03-26T05:53:47.823Z,1007.48
2023-03-26T05:54:18.600Z,1007.48
2023-03-26T05:54:49.761Z,1007.48
2023-03-26T05:55:20.300Z,1007.48
2023-03-26T05:55:51.253Z,1007.48
2023-03-26T05:56:22.572Z,1007.58
2023-03-26T06:01:00.943Z,1007.48
2023-03-26T06:01:33.572Z,1007.48
2023-03-26T06:02:04.739Z,1007.48
2023-03-26T06:02:36.424Z,1007.48
2023-03-26T06:04:48.594Z,1007.42
2023-03-26T06:05:43.663Z,1007.31
2023-03-26T06:06:11.633Z,1007.42
2023-03-26T06:06:42.121Z,1007.42
2023-03-26T06:07:13.134Z,1007.31
2023-03-26T06:07:44.300Z,1007.31
2023-03-26T06:08:15.776Z,1007.21
2023-03-26T06:19:54.641Z,1007.21
2023-03-26T06:20:09.595Z,1007.31
2023-03-26T06:20:55.930Z,1007.31
2023-03-26T06:21:12.572Z,1007.31
2023-03-26T06:21:44.471Z,1007.31
2023-03-26T06:22:14.198Z,1007.31
2023-03-26T06:22:45.286Z,1007.31
2023-03-26T06:23:16.549Z,1007.11
2023-03-26T06:23:47.242Z,1007.11
2023-03-26T06:24:17.058Z,1007.21
2023-03-26T06:24:47.320Z,1007.21
2023-03-26T06:25:18.901Z,1007.31
2023-03-26T06:25:49.451Z,1007.31
2023-03-26T06:26:20.857Z,1007.42
2023-03-26T06:26:51.203Z,1007.42
2023-03-26T06:27:21.904Z,1007.31
2023-03-26T06:28:24.331Z,1007.21
2023-03-26T06:28:55.531Z,1007.21
2023-03-26T06:29:27.806Z,1007.31
2023-03-26T06:29:58.222Z,1007.31
2023-03-26T06:30:55.089Z,1007.31
2023-03-26T06:31:30.821Z,1007.31
2023-03-26T06:32:30.212Z,1007.42
2023-03-26T06:33:07.807Z,1007.42
2023-03-26T06:33:34.181Z,1007.42
2023-03-26T06:34:06.147Z,1007.11
2023-03-26T06:34:40.390Z,1007.11
2023-03-26T06:35:08.894Z,1007.31
2023-03-26T06:35:39.059Z,1007.31
2023-03-26T06:36:11.111Z,1007.31
2023-03-26T06:36:40.724Z,1007.31
2023-03-26T06:38:17.157Z,1007.42
2023-03-26T06:38:44.995Z,1007.48
2023-03-26T06:39:16.171Z,1007.42
2023-03-26T06:39:48.354Z,1007.42
2023-03-26T06:40:19.370Z,1007.21
2023-03-26T06:40:49.345Z,1007.21
2023-03-26T06:41:20.205Z,1007.21
2023-03-26T06:41:50.505Z,1007.21
2023-03-26T06:42:21.792Z,1007.31
2023-03-26T06:43:23.292Z,1007.42
2023-03-26T06:43:54.262Z,1007.42
2023-03-26T06:44:42.545Z,1007.31
2023-03-26T06:44:58.003Z,1007.31
2023-03-26T06:45:30.834Z,1007.42
2023-03-26T06:45:58.793Z,1007.42
2023-03-26T06:46:30.037Z,1007.21
2023-03-26T06:47:00.634Z,1007.21
2023-03-26T06:47:31.523Z,1007.42
2023-03-26T06:48:02.945Z,1007.42
2023-03-26T06:48:32.993Z,1007.42
2023-03-26T06:49:35.765Z,1007.31